createdAt,value
2019-04-13T00:01:47.163Z,99.35
2019-04-13T00:04:28.715Z,99.64
2019-04-13T00:06:48.401Z,99.77
2019-04-13T00:09:18.237Z,99.54
2019-04-13T00:12:12.146Z,99.53
2019-04-13T00:14:40.878Z,99.39
2019-04-13T00:17:09.626Z,99.05
2019-04-13T00:19:38.376Z,99.88
2019-04-13T00:22:07.185Z,100.00
2019-04-13T00:24:35.946Z,100.00
2019-04-13T00:27:05.040Z,100.00
2019-04-13T00:29:33.773Z,99.95
2019-04-13T00:32:02.665Z,99.43
2019-04-13T00:34:40.910Z,99.36
2019-04-13T00:37:01.906Z,99.84
2019-04-13T00:39:30.671Z,99.79
2019-04-13T00:41:59.415Z,99.20
2019-04-13T00:44:28.191Z,99.05
2019-04-13T00:46:56.992Z,100.00
2019-04-13T00:49:25.739Z,100.00
2019-04-13T00:51:54.488Z,100.00
2019-04-13T00:54:23.232Z,100.00
2019-04-13T00:56:51.999Z,100.00
2019-04-13T00:59:20.738Z,100.00
2019-04-13T01:01:49.587Z,100.00
2019-04-13T01:04:18.328Z,100.00
2019-04-13T01:06:47.086Z,100.00
2019-04-13T01:09:15.834Z,100.00
2019-04-13T01:11:44.670Z,100.00
2019-04-13T01:14:13.486Z,100.00
2019-04-13T01:16:42.351Z,100.00
2019-04-13T01:19:11.099Z,100.00
2019-04-13T01:21:39.828Z,100.00
2019-04-13T01:24:08.690Z,100.00
2019-04-13T01:26:37.404Z,100.00
2019-04-13T01:29:06.201Z,100.00
2019-04-13T01:31:34.964Z,100.00
2019-04-13T01:34:03.706Z,100.00
2019-04-13T01:36:32.498Z,100.00
2019-04-13T01:39:01.265Z,100.00
2019-04-13T01:41:30.076Z,100.00
2019-04-13T01:43:58.860Z,100.00
2019-04-13T01:46:27.644Z,100.00
2019-04-13T01:48:56.404Z,100.00
2019-04-13T01:51:25.207Z,100.00
2019-04-13T01:53:53.975Z,100.00
2019-04-13T01:56:22.895Z,100.00
2019-04-13T01:58:51.640Z,100.00
2019-04-13T02:01:39.715Z,100.00
2019-04-13T02:04:27.617Z,100.00
2019-04-13T02:07:17.240Z,100.00
2019-04-13T02:10:03.766Z,100.00
2019-04-13T02:12:32.592Z,100.00
2019-04-13T02:15:01.338Z,100.00
2019-04-13T02:17:30.102Z,100.00
2019-04-13T02:19:58.870Z,100.00
2019-04-13T02:22:27.701Z,100.00
2019-04-13T02:24:56.459Z,100.00
2019-04-13T02:27:25.563Z,100.00
2019-04-13T02:29:54.341Z,100.00
2019-04-13T02:32:23.074Z,100.00
2019-04-13T02:34:51.952Z,100.00
2019-04-13T02:37:20.724Z,100.00
2019-04-13T02:39:49.491Z,100.00
2019-04-13T02:42:18.240Z,100.00
2019-04-13T02:44:47.169Z,100.00
2019-04-13T02:47:16.661Z,100.00
2019-04-13T02:49:45.404Z,100.00
2019-04-13T02:52:14.260Z,100.00
2019-04-13T02:54:42.976Z,100.00
2019-04-13T02:57:11.735Z,100.00
2019-04-13T02:59:40.542Z,100.00
2019-04-13T03:02:09.373Z,100.00
2019-04-13T03:04:38.306Z,100.00
2019-04-13T03:07:07.065Z,100.00
2019-04-13T03:09:35.790Z,100.00
2019-04-13T03:12:04.790Z,100.00
2019-04-13T03:14:33.623Z,100.00
2019-04-13T03:17:20.462Z,100.00
2019-04-13T03:19:52.956Z,100.00
2019-04-13T03:22:21.699Z,100.00
2019-04-13T03:24:50.443Z,100.00
2019-04-13T03:27:19.240Z,100.00
2019-04-13T03:29:48.295Z,100.00
2019-04-13T03:32:17.049Z,100.00
2019-04-13T03:34:45.865Z,100.00
2019-04-13T03:37:14.849Z,100.00
2019-04-13T03:39:43.711Z,100.00
2019-04-13T03:42:12.420Z,100.00
2019-04-13T03:44:41.752Z,100.00
2019-04-13T03:47:11.094Z,100.00
2019-04-13T03:49:40.905Z,100.00
2019-04-13T03:52:09.661Z,100.00
2019-04-13T03:54:38.408Z,100.00
2019-04-13T03:57:07.147Z,100.00
2019-04-13T03:59:35.978Z,100.00
2019-04-13T04:02:04.713Z,100.00
2019-04-13T04:04:33.468Z,100.00
2019-04-13T04:07:02.358Z,100.00
2019-04-13T04:09:31.128Z,100.00
2019-04-13T04:11:59.933Z,100.00
2019-04-13T04:14:28.639Z,100.00
2019-04-13T04:16:57.465Z,100.00
2019-04-13T04:19:26.312Z,100.00
2019-04-13T04:21:55.336Z,100.00
2019-04-13T04:24:24.095Z,100.00
2019-04-13T04:26:52.849Z,100.00
2019-04-13T04:29:21.582Z,100.00
2019-04-13T04:31:50.335Z,100.00
2019-04-13T04:34:19.104Z,100.00
2019-04-13T04:36:47.876Z,100.00
2019-04-13T04:39:16.619Z,100.00
2019-04-13T04:41:45.447Z,100.00
2019-04-13T04:44:14.521Z,100.00
2019-04-13T04:46:43.622Z,100.00
2019-04-13T04:49:12.463Z,100.00
2019-04-13T04:51:41.223Z,100.00
2019-04-13T04:54:09.994Z,100.00
2019-04-13T04:56:38.740Z,100.00
2019-04-13T04:59:07.571Z,100.00
2019-04-13T05:01:36.314Z,100.00
2019-04-13T05:04:05.051Z,100.00
2019-04-13T05:06:35.751Z,100.00
2019-04-13T05:09:06.240Z,100.00
2019-04-13T05:11:35.221Z,100.00
2019-04-13T05:14:04.012Z,100.00
2019-04-13T05:16:32.971Z,100.00
2019-04-13T05:19:01.717Z,100.00
2019-04-13T05:21:30.456Z,100.00
2019-04-13T05:23:59.218Z,100.00
2019-04-13T05:26:27.948Z,100.00
2019-04-13T05:28:56.708Z,100.00
2019-04-13T05:31:25.463Z,100.00
2019-04-13T05:33:54.216Z,100.00
2019-04-13T05:36:23.376Z,100.00
2019-04-13T05:38:52.124Z,100.00
2019-04-13T05:41:20.900Z,100.00
2019-04-13T05:43:49.891Z,100.00
2019-04-13T05:46:18.641Z,100.00
2019-04-13T05:48:47.560Z,100.00
2019-04-13T05:51:16.319Z,100.00
2019-04-13T05:53:45.049Z,100.00
2019-04-13T05:56:13.809Z,100.00
2019-04-13T05:58:42.635Z,100.00
2019-04-13T06:01:11.380Z,100.00
2019-04-13T06:03:40.151Z,100.00
2019-04-13T06:06:09.031Z,100.00
2019-04-13T06:08:40.458Z,100.00
2019-04-13T06:11:10.233Z,100.00
2019-04-13T06:13:39.503Z,100.00
2019-04-13T06:16:09.134Z,100.00
2019-04-13T06:18:38.089Z,100.00
2019-04-13T06:21:07.599Z,100.00
2019-04-13T06:23:36.400Z,100.00
2019-04-13T06:26:05.289Z,100.00
2019-04-13T06:28:34.120Z,100.00
2019-04-13T06:31:34.372Z,99.36
2019-04-13T06:34:12.047Z,99.09
2019-04-13T06:36:41.838Z,98.75
2019-04-13T06:39:11.895Z,97.98
2019-04-13T06:41:43.731Z,97.29
2019-04-13T06:44:11.527Z,96.16
2019-04-13T06:46:40.467Z,95.33
2019-04-13T06:49:09.254Z,95.61
2019-04-13T06:51:38.008Z,95.51
2019-04-13T06:54:06.987Z,96.24
2019-04-13T06:56:36.110Z,97.46
2019-04-13T06:59:05.172Z,96.28
2019-04-13T07:01:33.957Z,97.06
2019-04-13T07:04:02.768Z,96.43
2019-04-13T07:06:32.147Z,96.84
2019-04-13T07:09:21.085Z,96.94
2019-04-13T07:11:56.254Z,96.35
2019-04-13T07:14:25.667Z,96.25
2019-04-13T07:17:16.600Z,95.91
2019-04-13T07:19:45.792Z,95.96
2019-04-13T07:22:14.542Z,96.30
2019-04-13T07:24:43.268Z,96.30
2019-04-13T07:27:12.381Z,95.69
2019-04-13T07:29:41.609Z,95.85
2019-04-13T07:32:10.381Z,94.96
2019-04-13T07:34:39.130Z,94.28
2019-04-13T07:37:12.152Z,92.86
2019-04-13T07:39:38.338Z,93.37
2019-04-13T07:42:07.103Z,93.53
2019-04-13T07:44:41.062Z,93.25
2019-04-13T07:47:38.225Z,94.78
2019-04-13T07:50:16.334Z,93.62
2019-04-13T07:52:45.067Z,93.63
2019-04-13T07:55:16.798Z,93.19
2019-04-13T07:57:44.815Z,91.93
2019-04-13T08:00:13.893Z,91.49
2019-04-13T08:02:42.671Z,89.72
2019-04-13T08:05:11.533Z,88.40
2019-04-13T08:07:49.548Z,90.20
2019-04-13T08:10:10.949Z,88.03
2019-04-13T08:12:39.786Z,87.01
2019-04-13T08:15:08.757Z,88.27
2019-04-13T08:17:37.800Z,86.77
2019-04-13T08:20:29.706Z,86.43
2019-04-13T08:22:59.234Z,87.11
2019-04-13T08:25:27.961Z,87.38
2019-04-13T08:27:57.058Z,87.35
2019-04-13T08:30:27.518Z,84.36
2019-04-13T08:32:56.283Z,84.64
2019-04-13T08:35:25.274Z,86.61
2019-04-13T08:38:11.817Z,86.86
2019-04-13T08:40:24.607Z,85.63
2019-04-13T08:42:53.509Z,83.79
2019-04-13T08:45:22.497Z,84.63
2019-04-13T08:47:51.289Z,83.46
2019-04-13T08:50:20.152Z,84.04
2019-04-13T08:52:48.925Z,83.25
2019-04-13T08:55:17.713Z,82.44
2019-04-13T08:57:46.479Z,83.51
2019-04-13T09:00:15.498Z,82.07
2019-04-13T09:02:44.562Z,84.61
2019-04-13T09:05:14.661Z,84.30
2019-04-13T09:07:43.420Z,81.89
2019-04-13T09:10:16.021Z,82.75
2019-04-13T09:12:43.600Z,81.52
2019-04-13T09:15:12.782Z,80.35
2019-04-13T09:18:02.375Z,83.35
2019-04-13T09:20:44.220Z,82.77
2019-04-13T09:23:14.246Z,83.34
2019-04-13T09:25:43.224Z,81.86
2019-04-13T09:28:12.637Z,80.97
2019-04-13T09:30:42.012Z,82.79
2019-04-13T09:33:11.008Z,82.61
2019-04-13T09:35:40.067Z,80.36
2019-04-13T09:38:09.006Z,80.25
2019-04-13T09:40:37.767Z,82.36
2019-04-13T09:43:08.362Z,82.45
2019-04-13T09:45:37.870Z,82.84
2019-04-13T09:48:07.133Z,78.30
2019-04-13T09:50:41.343Z,77.90
2019-04-13T09:53:10.237Z,81.15
2019-04-13T09:55:49.975Z,79.03
2019-04-13T09:58:18.887Z,79.74
2019-04-13T10:00:47.922Z,79.55
2019-04-13T10:03:23.024Z,77.87
2019-04-13T10:05:52.512Z,80.20
2019-04-13T10:08:21.571Z,78.76
2019-04-13T10:10:50.468Z,79.22
2019-04-13T10:13:37.309Z,79.43
2019-04-13T10:16:25.361Z,78.40
2019-04-13T10:18:55.365Z,78.81
2019-04-13T10:21:25.463Z,82.16
2019-04-13T10:23:54.547Z,82.98
2019-04-13T10:26:27.795Z,83.27
2019-04-13T10:29:07.911Z,83.32
2019-04-13T10:31:36.534Z,83.67
2019-04-13T10:34:05.608Z,83.61
2019-04-13T10:36:34.498Z,87.21
2019-04-13T10:39:08.603Z,89.38
2019-04-13T10:41:34.239Z,88.49
2019-04-13T10:44:07.906Z,88.77
2019-04-13T10:46:54.228Z,88.71
2019-04-13T10:49:37.235Z,89.33
2019-04-13T10:52:10.327Z,89.49
2019-04-13T10:54:39.227Z,90.06
2019-04-13T10:57:08.100Z,93.72
2019-04-13T10:59:36.927Z,95.87
2019-04-13T11:02:05.895Z,96.26
2019-04-13T11:04:50.200Z,97.45
2019-04-13T11:07:17.883Z,97.76
2019-04-13T11:09:46.736Z,98.26
2019-04-13T11:12:22.210Z,98.53
2019-04-13T11:14:46.638Z,96.80
2019-04-13T11:17:15.612Z,97.83
2019-04-13T11:19:50.861Z,98.80
2019-04-13T11:22:22.137Z,99.02
2019-04-13T11:24:50.372Z,99.47
2019-04-13T11:27:24.246Z,99.09
2019-04-13T11:29:55.380Z,98.62
2019-04-13T11:32:24.378Z,96.66
2019-04-13T11:34:53.535Z,95.57
2019-04-13T11:37:22.445Z,94.76
2019-04-13T11:39:54.042Z,94.50
2019-04-13T11:42:44.374Z,93.43
2019-04-13T11:45:31.137Z,93.03
2019-04-13T11:48:17.642Z,93.34
2019-04-13T11:50:49.251Z,91.94
2019-04-13T11:53:18.132Z,91.76
2019-04-13T11:55:46.918Z,94.22
2019-04-13T11:58:16.845Z,94.11
2019-04-13T12:01:19.908Z,94.28
2019-04-13T12:04:08.591Z,90.83
2019-04-13T12:06:59.648Z,87.59
2019-04-13T12:09:50.009Z,87.65
2019-04-13T12:12:54.068Z,89.22
2019-04-13T12:15:42.002Z,88.80
2019-04-13T12:18:24.249Z,89.57
2019-04-13T12:21:12.239Z,89.83
2019-04-13T12:23:43.419Z,88.53
2019-04-13T12:26:14.391Z,85.83
2019-04-13T12:28:43.135Z,86.55
2019-04-13T12:31:12.024Z,87.42
2019-04-13T12:33:40.789Z,89.26
2019-04-13T12:36:09.943Z,87.49
2019-04-13T12:38:49.337Z,86.64
2019-04-13T12:41:15.236Z,84.02
2019-04-13T12:43:45.372Z,85.15
2019-04-13T12:46:14.310Z,81.83
2019-04-13T12:48:43.291Z,82.45
2019-04-13T12:51:15.926Z,79.98
2019-04-13T12:53:45.390Z,82.44
2019-04-13T12:56:14.254Z,81.67
2019-04-13T12:58:43.106Z,81.24
2019-04-13T13:01:32.026Z,82.06
2019-04-13T13:04:00.914Z,83.24
2019-04-13T13:06:31.940Z,84.55
2019-04-13T13:09:01.557Z,84.58
2019-04-13T13:11:30.903Z,84.46
2019-04-13T13:13:59.841Z,85.09
2019-04-13T13:16:28.969Z,85.84
2019-04-13T13:18:58.378Z,85.74
2019-04-13T13:21:29.149Z,83.44
2019-04-13T13:23:57.996Z,84.58
2019-04-13T13:26:27.120Z,85.78
2019-04-13T13:28:56.257Z,84.99
2019-04-13T13:31:25.306Z,82.42
2019-04-13T13:33:55.953Z,84.53
2019-04-13T13:36:27.171Z,85.24
2019-04-13T13:39:00.118Z,82.98
2019-04-13T13:41:31.323Z,83.61
2019-04-13T13:43:59.758Z,81.74
2019-04-13T13:46:29.906Z,79.73
2019-04-13T13:48:59.341Z,82.51
2019-04-13T13:51:28.221Z,81.38
2019-04-13T13:53:56.951Z,80.46
2019-04-13T13:56:27.834Z,80.52
2019-04-13T13:59:04.141Z,79.14
2019-04-13T14:01:43.227Z,77.64
2019-04-13T14:04:11.229Z,79.74
2019-04-13T14:06:42.933Z,80.59
2019-04-13T14:09:11.827Z,82.07
2019-04-13T14:11:42.403Z,81.60
2019-04-13T14:14:14.693Z,83.87
2019-04-13T14:17:31.592Z,85.99
2019-04-13T14:20:01.606Z,89.16
2019-04-13T14:22:31.529Z,91.15
2019-04-13T14:25:00.969Z,92.46
2019-04-13T14:27:32.997Z,93.29
2019-04-13T14:30:05.354Z,96.73
2019-04-13T14:32:34.431Z,97.21
2019-04-13T14:35:05.803Z,97.53
2019-04-13T14:37:34.415Z,98.30
2019-04-13T14:40:05.751Z,98.08
2019-04-13T14:42:35.651Z,98.31
2019-04-13T14:45:05.149Z,98.46
2019-04-13T14:47:35.928Z,98.19
2019-04-13T14:50:06.122Z,98.11
2019-04-13T14:52:34.851Z,97.84
2019-04-13T14:55:09.844Z,97.37
2019-04-13T14:57:39.608Z,95.51
2019-04-13T15:00:11.054Z,95.62
2019-04-13T15:02:44.048Z,95.53
2019-04-13T15:05:15.521Z,94.95
2019-04-13T15:07:43.966Z,94.85
2019-04-13T15:10:15.154Z,93.90
2019-04-13T15:12:44.010Z,93.67
2019-04-13T15:15:13.575Z,92.51
2019-04-13T15:18:14.320Z,90.30
2019-04-13T15:20:45.977Z,89.04
2019-04-13T15:23:23.511Z,88.00
2019-04-13T15:25:52.814Z,87.85
2019-04-13T15:28:33.224Z,87.27
2019-04-13T15:31:01.463Z,88.55
2019-04-13T15:33:32.754Z,91.39
2019-04-13T15:36:04.374Z,93.30
2019-04-13T15:38:35.581Z,94.05
2019-04-13T15:41:09.112Z,95.17
2019-04-13T15:43:37.588Z,95.35
2019-04-13T15:46:07.112Z,96.14
2019-04-13T15:48:39.063Z,97.32
2019-04-13T15:51:09.532Z,97.81
2019-04-13T15:54:41.521Z,97.18
2019-04-13T15:57:20.077Z,97.71
2019-04-13T16:00:11.103Z,96.92
2019-04-13T16:03:02.262Z,97.64
2019-04-13T16:05:47.447Z,97.56
2019-04-13T16:08:30.681Z,97.05
2019-04-13T16:14:33.239Z,95.17
2019-04-13T16:17:03.268Z,95.51
2019-04-13T16:19:35.396Z,95.75
2019-04-13T16:22:05.556Z,97.07
2019-04-13T16:24:39.443Z,96.61
2019-04-13T16:27:12.644Z,96.49
2019-04-13T16:30:19.641Z,95.54
2019-04-13T16:33:02.114Z,96.13
2019-04-13T16:35:45.708Z,96.50
2019-04-13T16:38:15.528Z,95.32
2019-04-13T16:40:52.698Z,96.50
2019-04-13T16:43:26.606Z,97.08
2019-04-13T16:46:07.281Z,96.17
2019-04-13T16:49:08.594Z,96.14
2019-04-13T16:51:47.808Z,96.72
2019-04-13T16:54:50.702Z,96.91
2019-04-13T16:57:27.241Z,97.57
2019-04-13T17:00:35.892Z,99.32
2019-04-13T17:03:16.141Z,100.00
2019-04-13T17:05:46.804Z,100.00
2019-04-13T17:08:16.143Z,100.00
2019-04-13T17:10:46.280Z,100.00
2019-04-13T17:13:16.086Z,100.00
2019-04-13T17:15:46.026Z,100.00
2019-04-13T17:18:20.715Z,100.00
2019-04-13T17:20:59.951Z,100.00
2019-04-13T17:23:52.244Z,100.00
2019-04-13T17:26:54.442Z,100.00
2019-04-13T17:29:48.106Z,100.00
2019-04-13T17:32:27.542Z,100.00
2019-04-13T17:35:04.668Z,100.00
2019-04-13T17:37:34.155Z,100.00
2019-04-13T17:40:03.511Z,100.00
2019-04-13T17:42:51.592Z,100.00
2019-04-13T17:45:40.590Z,100.00
2019-04-13T17:48:27.586Z,100.00
2019-04-13T17:51:08.018Z,100.00
2019-04-13T17:54:06.130Z,100.00
2019-04-13T17:56:36.380Z,100.00
2019-04-13T17:59:31.963Z,100.00
2019-04-13T18:02:32.190Z,100.00
2019-04-13T18:05:29.460Z,100.00
2019-04-13T18:08:37.741Z,100.00
2019-04-13T18:11:08.759Z,100.00
2019-04-13T18:14:00.704Z,100.00
2019-04-13T18:16:46.740Z,100.00
2019-04-13T18:19:19.038Z,100.00
2019-04-13T18:21:49.264Z,100.00
2019-04-13T18:24:19.870Z,100.00
2019-04-13T18:26:50.071Z,100.00
2019-04-13T18:29:19.878Z,100.00
2019-04-13T18:31:48.708Z,100.00
2019-04-13T18:34:18.428Z,100.00
2019-04-13T18:36:48.505Z,100.00
2019-04-13T18:39:17.475Z,100.00
2019-04-13T18:41:47.581Z,100.00
2019-04-13T18:44:17.940Z,100.00
2019-04-13T18:46:47.471Z,100.00
2019-04-13T18:49:18.167Z,100.00
2019-04-13T18:51:46.989Z,100.00
2019-04-13T18:54:17.820Z,100.00
2019-04-13T18:56:46.681Z,100.00
2019-04-13T18:59:15.645Z,100.00
2019-04-13T19:01:45.300Z,100.00
2019-04-13T19:04:14.227Z,100.00
2019-04-13T19:06:43.399Z,100.00
2019-04-13T19:09:13.634Z,100.00
2019-04-13T19:11:42.573Z,100.00
2019-04-13T19:14:11.705Z,100.00
2019-04-13T19:16:40.605Z,100.00
2019-04-13T19:19:09.967Z,100.00
2019-04-13T19:21:38.752Z,100.00
2019-04-13T19:24:07.699Z,100.00
2019-04-13T19:26:36.514Z,100.00
2019-04-13T19:29:05.650Z,100.00
2019-04-13T19:31:34.630Z,100.00
2019-04-13T19:34:03.429Z,100.00
2019-04-13T19:36:32.272Z,100.00
2019-04-13T19:39:01.279Z,100.00
2019-04-13T19:41:30.051Z,100.00
2019-04-13T19:43:58.783Z,100.00
2019-04-13T19:46:27.661Z,100.00
2019-04-13T19:48:56.592Z,100.00
2019-04-13T19:51:45.078Z,100.00
2019-04-13T19:54:15.045Z,100.00
2019-04-13T19:56:44.647Z,100.00
2019-04-13T19:59:15.127Z,100.00
2019-04-13T20:01:45.897Z,100.00
2019-04-13T20:04:16.053Z,100.00
2019-04-13T20:06:45.777Z,100.00
2019-04-13T20:09:16.890Z,100.00
2019-04-13T20:11:46.674Z,100.00
2019-04-13T20:14:19.291Z,100.00
2019-04-13T20:16:48.942Z,100.00
2019-04-13T20:19:18.597Z,100.00
2019-04-13T20:21:48.148Z,100.00
2019-04-13T20:24:17.816Z,100.00
2019-04-13T20:26:46.906Z,100.00
2019-04-13T20:29:16.462Z,100.00
2019-04-13T20:31:46.347Z,100.00
2019-04-13T20:34:16.257Z,100.00
2019-04-13T20:36:45.996Z,100.00
2019-04-13T20:39:15.887Z,100.00
2019-04-13T20:41:52.289Z,100.00
2019-04-13T20:44:17.895Z,100.00
2019-04-13T20:46:45.940Z,100.00
2019-04-13T20:49:15.081Z,100.00
2019-04-13T20:51:43.917Z,100.00
2019-04-13T20:54:12.721Z,100.00
2019-04-13T20:56:42.465Z,100.00
2019-04-13T20:59:12.709Z,100.00
2019-04-13T21:01:42.845Z,100.00
2019-04-13T21:04:12.873Z,100.00
2019-04-13T21:06:41.820Z,100.00
2019-04-13T21:09:11.881Z,100.00
2019-04-13T21:11:41.659Z,100.00
2019-04-13T21:14:18.683Z,100.00
2019-04-13T21:16:41.064Z,100.00
2019-04-13T21:19:11.149Z,100.00
2019-04-13T21:21:40.996Z,100.00
2019-04-13T21:24:09.771Z,100.00
2019-04-13T21:26:39.231Z,100.00
2019-04-13T21:29:08.914Z,100.00
2019-04-13T21:31:38.802Z,100.00
2019-04-13T21:34:07.651Z,100.00
2019-04-13T21:36:36.992Z,100.00
2019-04-13T21:39:09.226Z,100.00
2019-04-13T21:41:38.944Z,100.00
2019-04-13T21:44:16.670Z,100.00
2019-04-13T21:46:39.297Z,100.00
2019-04-13T21:49:08.099Z,100.00
2019-04-13T21:51:55.200Z,100.00
2019-04-13T21:54:28.251Z,100.00
2019-04-13T21:56:58.072Z,100.00
2019-04-13T21:59:28.020Z,100.00
2019-04-13T22:02:07.745Z,100.00
2019-04-13T22:04:36.966Z,100.00
2019-04-13T22:07:07.101Z,100.00
2019-04-13T22:09:37.009Z,100.00
2019-04-13T22:12:06.941Z,100.00
2019-04-13T22:14:47.365Z,100.00
2019-04-13T22:17:07.390Z,100.00
2019-04-13T22:19:37.561Z,100.00
2019-04-13T22:22:07.532Z,100.00
2019-04-13T22:24:37.467Z,100.00
2019-04-13T22:27:09.520Z,100.00
2019-04-13T22:29:55.851Z,100.00
2019-04-13T22:32:33.982Z,100.00
2019-04-13T22:35:10.722Z,100.00
2019-04-13T22:37:40.601Z,100.00
2019-04-13T22:40:10.448Z,100.00
2019-04-13T22:42:40.369Z,100.00
2019-04-13T22:45:12.793Z,100.00
2019-04-13T22:47:40.742Z,100.00
2019-04-13T22:50:21.942Z,100.00
2019-04-13T22:53:15.708Z,100.00
2019-04-13T22:55:49.767Z,100.00
2019-04-13T22:58:18.579Z,100.00
2019-04-13T23:00:51.719Z,100.00
2019-04-13T23:03:22.257Z,100.00
2019-04-13T23:05:52.327Z,100.00
2019-04-13T23:08:21.271Z,100.00
2019-04-13T23:10:50.809Z,100.00
2019-04-13T23:13:19.687Z,100.00
2019-04-13T23:15:49.017Z,100.00
2019-04-13T23:18:18.729Z,100.00
2019-04-13T23:20:47.667Z,100.00
2019-04-13T23:23:16.478Z,100.00
2019-04-13T23:25:46.200Z,100.00
2019-04-13T23:28:15.038Z,100.00
2019-04-13T23:30:44.488Z,100.00
2019-04-13T23:33:13.355Z,100.00
2019-04-13T23:35:43.039Z,100.00
2019-04-13T23:38:11.827Z,100.00
2019-04-13T23:40:40.597Z,100.00
2019-04-13T23:43:10.276Z,100.00
2019-04-13T23:45:40.339Z,100.00
2019-04-13T23:48:09.535Z,100.00
2019-04-13T23:50:39.446Z,100.00
2019-04-13T23:53:08.187Z,100.00
2019-04-13T23:55:46.579Z,100.00
2019-04-13T23:58:36.591Z,100.00
